sensor_id;sensor_type;location;lat;lon;timestamp;P1;durP1;ratioP1;P2;durP2;ratioP2
72325;SDS011;60278;47.980;18.780;2023-10-19T00:02:08;14.20;;;7.70;;
72325;SDS011;60278;47.980;18.780;2023-10-19T00:05:10;15.00;;;7.88;;
72325;SDS011;60278;47.980;18.780;2023-10-19T00:08:12;14.60;;;8.13;;
72325;SDS011;60278;47.980;18.780;2023-10-19T00:11:14;16.75;;;7.95;;
72325;SDS011;60278;47.980;18.780;2023-10-19T00:14:27;12.32;;;7.47;;
72325;SDS011;60278;47.980;18.780;2023-10-19T00:17:30;14.20;;;8.70;;
72325;SDS011;60278;47.980;18.780;2023-10-19T00:20:34;16.02;;;8.95;;
72325;SDS011;60278;47.980;18.780;2023-10-19T00:23:36;15.73;;;9.80;;
72325;SDS011;60278;47.980;18.780;2023-10-19T00:26:39;15.65;;;9.20;;
72325;SDS011;60278;47.980;18.780;2023-10-19T00:29:42;21.65;;;11.52;;
72325;SDS011;60278;47.980;18.780;2023-10-19T00:32:51;16.33;;;9.03;;
72325;SDS011;60278;47.980;18.780;2023-10-19T00:35:54;20.13;;;9.70;;
72325;SDS011;60278;47.980;18.780;2023-10-19T00:39:10;20.80;;;10.23;;
72325;SDS011;60278;47.980;18.780;2023-10-19T00:42:18;13.02;;;8.05;;
72325;SDS011;60278;47.980;18.780;2023-10-19T00:45:25;16.15;;;9.50;;
72325;SDS011;60278;47.980;18.780;2023-10-19T00:48:28;17.00;;;10.40;;
72325;SDS011;60278;47.980;18.780;2023-10-19T00:51:37;17.75;;;10.93;;
72325;SDS011;60278;47.980;18.780;2023-10-19T00:54:55;19.98;;;9.80;;
72325;SDS011;60278;47.980;18.780;2023-10-19T00:58:00;17.83;;;11.48;;
72325;SDS011;60278;47.980;18.780;2023-10-19T01:01:11;29.65;;;14.50;;
72325;SDS011;60278;47.980;18.780;2023-10-19T01:04:14;18.27;;;12.07;;
72325;SDS011;60278;47.980;18.780;2023-10-19T01:07:17;20.30;;;12.07;;
72325;SDS011;60278;47.980;18.780;2023-10-19T01:10:29;24.48;;;14.13;;
72325;SDS011;60278;47.980;18.780;2023-10-19T01:13:33;29.63;;;14.95;;
72325;SDS011;60278;47.980;18.780;2023-10-19T01:16:36;24.13;;;15.30;;
72325;SDS011;60278;47.980;18.780;2023-10-19T01:19:39;22.60;;;11.13;;
72325;SDS011;60278;47.980;18.780;2023-10-19T01:23:01;16.63;;;9.65;;
72325;SDS011;60278;47.980;18.780;2023-10-19T01:26:10;23.17;;;11.60;;
72325;SDS011;60278;47.980;18.780;2023-10-19T01:29:14;17.98;;;11.25;;
72325;SDS011;60278;47.980;18.780;2023-10-19T01:32:28;26.85;;;12.65;;
72325;SDS011;60278;47.980;18.780;2023-10-19T01:35:30;18.37;;;10.30;;
72325;SDS011;60278;47.980;18.780;2023-10-19T01:38:53;18.25;;;9.77;;
72325;SDS011;60278;47.980;18.780;2023-10-19T01:41:56;17.65;;;9.98;;
72325;SDS011;60278;47.980;18.780;2023-10-19T01:44:59;22.25;;;10.95;;
72325;SDS011;60278;47.980;18.780;2023-10-19T01:48:01;16.20;;;9.38;;
72325;SDS011;60278;47.980;18.780;2023-10-19T01:51:04;12.67;;;8.50;;
72325;SDS011;60278;47.980;18.780;2023-10-19T01:54:07;15.20;;;9.38;;
72325;SDS011;60278;47.980;18.780;2023-10-19T01:57:09;14.13;;;9.48;;
72325;SDS011;60278;47.980;18.780;2023-10-19T02:00:12;16.67;;;10.35;;
72325;SDS011;60278;47.980;18.780;2023-10-19T02:03:21;19.10;;;10.93;;
72325;SDS011;60278;47.980;18.780;2023-10-19T02:06:29;19.23;;;10.00;;
72325;SDS011;60278;47.980;18.780;2023-10-19T02:09:42;19.55;;;10.18;;
72325;SDS011;60278;47.980;18.780;2023-10-19T02:12:45;16.80;;;9.80;;
72325;SDS011;60278;47.980;18.780;2023-10-19T02:15:48;15.60;;;9.68;;
72325;SDS011;60278;47.980;18.780;2023-10-19T02:18:51;17.65;;;10.75;;
72325;SDS011;60278;47.980;18.780;2023-10-19T02:21:54;31.47;;;17.73;;
72325;SDS011;60278;47.980;18.780;2023-10-19T02:24:57;29.05;;;15.70;;
72325;SDS011;60278;47.980;18.780;2023-10-19T02:27:59;27.90;;;14.75;;
72325;SDS011;60278;47.980;18.780;2023-10-19T02:31:01;25.33;;;13.10;;
72325;SDS011;60278;47.980;18.780;2023-10-19T02:34:22;19.77;;;11.50;;
72325;SDS011;60278;47.980;18.780;2023-10-19T02:37:25;24.00;;;12.77;;
72325;SDS011;60278;47.980;18.780;2023-10-19T02:40:27;18.40;;;12.40;;
72325;SDS011;60278;47.980;18.780;2023-10-19T02:43:33;19.65;;;11.55;;
72325;SDS011;60278;47.980;18.780;2023-10-19T02:46:38;24.30;;;13.38;;
72325;SDS011;60278;47.980;18.780;2023-10-19T02:49:40;21.48;;;13.80;;
72325;SDS011;60278;47.980;18.780;2023-10-19T02:52:45;22.67;;;13.07;;
72325;SDS011;60278;47.980;18.780;2023-10-19T02:55:47;20.40;;;13.02;;
72325;SDS011;60278;47.980;18.780;2023-10-19T02:58:53;19.48;;;12.45;;
72325;SDS011;60278;47.980;18.780;2023-10-19T03:01:56;18.85;;;11.95;;
72325;SDS011;60278;47.980;18.780;2023-10-19T03:05:04;19.40;;;12.10;;
72325;SDS011;60278;47.980;18.780;2023-10-19T03:08:16;20.43;;;12.77;;
72325;SDS011;60278;47.980;18.780;2023-10-19T03:11:21;28.48;;;16.88;;
72325;SDS011;60278;47.980;18.780;2023-10-19T03:14:23;23.20;;;14.45;;
72325;SDS011;60278;47.980;18.780;2023-10-19T03:17:28;22.73;;;13.48;;
72325;SDS011;60278;47.980;18.780;2023-10-19T03:20:32;26.00;;;16.75;;
72325;SDS011;60278;47.980;18.780;2023-10-19T03:23:35;32.60;;;14.87;;
72325;SDS011;60278;47.980;18.780;2023-10-19T03:26:37;23.45;;;15.38;;
72325;SDS011;60278;47.980;18.780;2023-10-19T03:29:42;23.40;;;16.05;;
72325;SDS011;60278;47.980;18.780;2023-10-19T03:32:48;22.75;;;14.65;;
72325;SDS011;60278;47.980;18.780;2023-10-19T03:35:52;33.92;;;15.07;;
72325;SDS011;60278;47.980;18.780;2023-10-19T03:38:55;23.70;;;14.23;;
72325;SDS011;60278;47.980;18.780;2023-10-19T03:41:58;24.10;;;14.23;;
72325;SDS011;60278;47.980;18.780;2023-10-19T03:45:00;23.17;;;14.43;;
72325;SDS011;60278;47.980;18.780;2023-10-19T03:48:07;22.60;;;13.88;;
72325;SDS011;60278;47.980;18.780;2023-10-19T03:51:12;24.85;;;15.15;;
72325;SDS011;60278;47.980;18.780;2023-10-19T03:54:15;23.40;;;14.37;;
72325;SDS011;60278;47.980;18.780;2023-10-19T03:57:24;24.50;;;15.05;;
72325;SDS011;60278;47.980;18.780;2023-10-19T04:00:27;27.85;;;16.08;;
72325;SDS011;60278;47.980;18.780;2023-10-19T04:03:30;22.75;;;14.82;;
72325;SDS011;60278;47.980;18.780;2023-10-19T04:06:33;23.77;;;15.18;;
72325;SDS011;60278;47.980;18.780;2023-10-19T04:09:35;22.77;;;14.97;;
72325;SDS011;60278;47.980;18.780;2023-10-19T04:12:39;26.92;;;15.85;;
72325;SDS011;60278;47.980;18.780;2023-10-19T04:15:44;23.95;;;15.25;;
72325;SDS011;60278;47.980;18.780;2023-10-19T04:18:47;22.77;;;14.88;;
72325;SDS011;60278;47.980;18.780;2023-10-19T04:21:50;23.23;;;15.32;;
72325;SDS011;60278;47.980;18.780;2023-10-19T04:24:52;23.20;;;15.40;;
72325;SDS011;60278;47.980;18.780;2023-10-19T04:27:55;28.83;;;15.50;;
72325;SDS011;60278;47.980;18.780;2023-10-19T04:30:59;25.40;;;16.00;;
72325;SDS011;60278;47.980;18.780;2023-10-19T04:34:05;25.65;;;16.00;;
72325;SDS011;60278;47.980;18.780;2023-10-19T04:37:11;24.17;;;15.80;;
72325;SDS011;60278;47.980;18.780;2023-10-19T04:40:14;22.97;;;15.60;;
72325;SDS011;60278;47.980;18.780;2023-10-19T04:43:16;21.83;;;14.38;;
72325;SDS011;60278;47.980;18.780;2023-10-19T04:46:18;24.27;;;15.60;;
72325;SDS011;60278;47.980;18.780;2023-10-19T04:49:21;25.30;;;15.73;;
72325;SDS011;60278;47.980;18.780;2023-10-19T04:52:24;22.92;;;15.65;;
72325;SDS011;60278;47.980;18.780;2023-10-19T04:55:26;24.37;;;15.53;;
72325;SDS011;60278;47.980;18.780;2023-10-19T04:58:29;23.70;;;15.43;;
72325;SDS011;60278;47.980;18.780;2023-10-19T05:01:31;26.05;;;16.13;;
72325;SDS011;60278;47.980;18.780;2023-10-19T05:04:35;27.05;;;15.95;;
72325;SDS011;60278;47.980;18.780;2023-10-19T05:07:37;23.33;;;15.05;;
72325;SDS011;60278;47.980;18.780;2023-10-19T05:10:40;25.60;;;15.23;;
72325;SDS011;60278;47.980;18.780;2023-10-19T05:13:44;25.77;;;15.65;;
72325;SDS011;60278;47.980;18.780;2023-10-19T05:16:46;26.10;;;16.50;;
72325;SDS011;60278;47.980;18.780;2023-10-19T05:19:48;23.70;;;15.32;;
72325;SDS011;60278;47.980;18.780;2023-10-19T05:22:51;24.50;;;16.10;;
72325;SDS011;60278;47.980;18.780;2023-10-19T05:25:53;28.30;;;17.20;;
72325;SDS011;60278;47.980;18.780;2023-10-19T05:29:01;72.97;;;30.50;;
72325;SDS011;60278;47.980;18.780;2023-10-19T05:32:03;61.17;;;24.88;;
72325;SDS011;60278;47.980;18.780;2023-10-19T05:35:06;41.22;;;21.90;;
72325;SDS011;60278;47.980;18.780;2023-10-19T05:38:08;34.33;;;19.95;;
72325;SDS011;60278;47.980;18.780;2023-10-19T05:41:10;32.00;;;18.23;;
72325;SDS011;60278;47.980;18.780;2023-10-19T05:44:13;25.08;;;16.20;;
72325;SDS011;60278;47.980;18.780;2023-10-19T05:47:15;26.38;;;17.67;;
72325;SDS011;60278;47.980;18.780;2023-10-19T05:50:17;25.15;;;15.80;;
72325;SDS011;60278;47.980;18.780;2023-10-19T05:53:19;27.00;;;16.90;;
72325;SDS011;60278;47.980;18.780;2023-10-19T05:56:24;25.30;;;15.93;;
72325;SDS011;60278;47.980;18.780;2023-10-19T05:59:26;26.90;;;16.38;;
72325;SDS011;60278;47.980;18.780;2023-10-19T06:02:31;26.02;;;16.40;;
72325;SDS011;60278;47.980;18.780;2023-10-19T06:05:34;29.10;;;16.00;;
72325;SDS011;60278;47.980;18.780;2023-10-19T06:08:36;25.52;;;15.15;;
72325;SDS011;60278;47.980;18.780;2023-10-19T06:11:38;28.60;;;15.40;;
72325;SDS011;60278;47.980;18.780;2023-10-19T06:14:44;25.60;;;15.32;;
72325;SDS011;60278;47.980;18.780;2023-10-19T06:17:46;22.98;;;14.23;;
72325;SDS011;60278;47.980;18.780;2023-10-19T06:20:50;24.42;;;14.43;;
72325;SDS011;60278;47.980;18.780;2023-10-19T06:23:53;29.30;;;15.73;;
72325;SDS011;60278;47.980;18.780;2023-10-19T06:26:56;24.03;;;14.67;;
72325;SDS011;60278;47.980;18.780;2023-10-19T06:29:58;25.05;;;14.15;;
72325;SDS011;60278;47.980;18.780;2023-10-19T06:33:00;22.92;;;14.40;;
72325;SDS011;60278;47.980;18.780;2023-10-19T06:36:03;23.92;;;13.00;;
72325;SDS011;60278;47.980;18.780;2023-10-19T06:39:05;19.42;;;12.63;;
72325;SDS011;60278;47.980;18.780;2023-10-19T06:42:08;27.03;;;13.23;;
72325;SDS011;60278;47.980;18.780;2023-10-19T06:45:16;21.95;;;12.38;;
72325;SDS011;60278;47.980;18.780;2023-10-19T06:48:18;21.27;;;12.13;;
72325;SDS011;60278;47.980;18.780;2023-10-19T06:51:20;20.70;;;12.20;;
72325;SDS011;60278;47.980;18.780;2023-10-19T06:54:22;21.35;;;11.82;;
72325;SDS011;60278;47.980;18.780;2023-10-19T06:57:24;17.77;;;11.23;;
72325;SDS011;60278;47.980;18.780;2023-10-19T07:00:26;18.27;;;10.80;;
72325;SDS011;60278;47.980;18.780;2023-10-19T07:03:28;18.02;;;10.75;;
72325;SDS011;60278;47.980;18.780;2023-10-19T07:06:31;20.75;;;10.85;;
72325;SDS011;60278;47.980;18.780;2023-10-19T07:09:33;18.73;;;11.10;;
72325;SDS011;60278;47.980;18.780;2023-10-19T07:12:36;16.80;;;10.77;;
72325;SDS011;60278;47.980;18.780;2023-10-19T07:15:40;20.05;;;11.55;;
72325;SDS011;60278;47.980;18.780;2023-10-19T07:18:43;17.02;;;11.90;;
72325;SDS011;60278;47.980;18.780;2023-10-19T07:21:45;20.35;;;11.75;;
72325;SDS011;60278;47.980;18.780;2023-10-19T07:24:50;20.70;;;12.80;;
72325;SDS011;60278;47.980;18.780;2023-10-19T07:27:53;16.63;;;11.43;;
72325;SDS011;60278;47.980;18.780;2023-10-19T07:30:55;18.65;;;11.75;;
72325;SDS011;60278;47.980;18.780;2023-10-19T07:33:58;18.88;;;11.50;;
72325;SDS011;60278;47.980;18.780;2023-10-19T07:37:00;18.17;;;12.07;;
72325;SDS011;60278;47.980;18.780;2023-10-19T07:40:03;21.75;;;12.73;;
72325;SDS011;60278;47.980;18.780;2023-10-19T07:43:07;21.13;;;11.77;;
72325;SDS011;60278;47.980;18.780;2023-10-19T07:46:10;21.48;;;12.85;;
72325;SDS011;60278;47.980;18.780;2023-10-19T07:49:13;22.08;;;12.70;;
72325;SDS011;60278;47.980;18.780;2023-10-19T07:52:16;26.70;;;12.65;;
72325;SDS011;60278;47.980;18.780;2023-10-19T07:55:19;25.65;;;13.07;;
72325;SDS011;60278;47.980;18.780;2023-10-19T07:58:21;18.90;;;11.63;;
72325;SDS011;60278;47.980;18.780;2023-10-19T08:01:23;18.00;;;11.85;;
72325;SDS011;60278;47.980;18.780;2023-10-19T08:04:25;22.55;;;12.82;;
72325;SDS011;60278;47.980;18.780;2023-10-19T08:07:29;26.13;;;13.07;;
72325;SDS011;60278;47.980;18.780;2023-10-19T08:10:32;36.72;;;13.60;;
72325;SDS011;60278;47.980;18.780;2023-10-19T08:13:36;19.47;;;12.33;;
72325;SDS011;60278;47.980;18.780;2023-10-19T08:16:38;23.48;;;11.88;;
72325;SDS011;60278;47.980;18.780;2023-10-19T08:19:40;19.17;;;12.35;;
72325;SDS011;60278;47.980;18.780;2023-10-19T08:22:43;17.98;;;11.90;;
72325;SDS011;60278;47.980;18.780;2023-10-19T08:25:48;18.40;;;12.25;;
72325;SDS011;60278;47.980;18.780;2023-10-19T08:28:58;22.77;;;12.87;;
72325;SDS011;60278;47.980;18.780;2023-10-19T08:32:01;19.67;;;12.55;;
72325;SDS011;60278;47.980;18.780;2023-10-19T08:35:03;22.30;;;13.30;;
72325;SDS011;60278;47.980;18.780;2023-10-19T08:38:06;19.15;;;12.48;;
72325;SDS011;60278;47.980;18.780;2023-10-19T08:41:14;17.92;;;12.43;;
72325;SDS011;60278;47.980;18.780;2023-10-19T08:44:17;19.87;;;11.47;;
72325;SDS011;60278;47.980;18.780;2023-10-19T08:47:19;20.55;;;13.55;;
72325;SDS011;60278;47.980;18.780;2023-10-19T08:50:24;19.42;;;12.63;;
72325;SDS011;60278;47.980;18.780;2023-10-19T08:53:26;18.27;;;12.05;;
72325;SDS011;60278;47.980;18.780;2023-10-19T08:56:29;18.67;;;11.77;;
72325;SDS011;60278;47.980;18.780;2023-10-19T08:59:31;18.23;;;12.57;;
72325;SDS011;60278;47.980;18.780;2023-10-19T09:02:33;17.83;;;12.07;;
72325;SDS011;60278;47.980;18.780;2023-10-19T09:05:37;23.17;;;12.40;;
72325;SDS011;60278;47.980;18.780;2023-10-19T09:08:40;25.00;;;12.35;;
72325;SDS011;60278;47.980;18.780;2023-10-19T09:11:42;23.25;;;12.75;;
72325;SDS011;60278;47.980;18.780;2023-10-19T09:14:45;17.73;;;12.40;;
72325;SDS011;60278;47.980;18.780;2023-10-19T09:17:47;17.13;;;11.25;;
72325;SDS011;60278;47.980;18.780;2023-10-19T09:20:52;17.75;;;12.80;;
72325;SDS011;60278;47.980;18.780;2023-10-19T09:23:55;18.23;;;12.40;;
72325;SDS011;60278;47.980;18.780;2023-10-19T09:26:58;17.73;;;12.48;;
72325;SDS011;60278;47.980;18.780;2023-10-19T09:30:00;19.47;;;13.17;;
72325;SDS011;60278;47.980;18.780;2023-10-19T09:33:04;20.02;;;13.00;;
72325;SDS011;60278;47.980;18.780;2023-10-19T09:36:06;19.48;;;13.35;;
72325;SDS011;60278;47.980;18.780;2023-10-19T09:39:15;18.33;;;11.70;;
72325;SDS011;60278;47.980;18.780;2023-10-19T09:42:18;18.73;;;12.75;;
72325;SDS011;60278;47.980;18.780;2023-10-19T09:45:21;23.00;;;11.70;;
72325;SDS011;60278;47.980;18.780;2023-10-19T09:48:26;17.70;;;12.00;;
72325;SDS011;60278;47.980;18.780;2023-10-19T09:51:28;18.58;;;12.68;;
72325;SDS011;60278;47.980;18.780;2023-10-19T09:57:53;19.65;;;12.88;;
72325;SDS011;60278;47.980;18.780;2023-10-19T10:00:56;19.30;;;12.17;;
72325;SDS011;60278;47.980;18.780;2023-10-19T10:04:05;20.05;;;12.15;;
72325;SDS011;60278;47.980;18.780;2023-10-19T10:07:09;23.13;;;13.13;;
72325;SDS011;60278;47.980;18.780;2023-10-19T10:10:11;18.45;;;11.65;;
72325;SDS011;60278;47.980;18.780;2023-10-19T10:16:34;21.80;;;12.43;;
72325;SDS011;60278;47.980;18.780;2023-10-19T10:19:36;18.85;;;12.82;;
72325;SDS011;60278;47.980;18.780;2023-10-19T10:22:38;18.52;;;12.68;;
72325;SDS011;60278;47.980;18.780;2023-10-19T10:25:40;21.38;;;12.48;;
72325;SDS011;60278;47.980;18.780;2023-10-19T10:28:46;18.17;;;12.93;;
72325;SDS011;60278;47.980;18.780;2023-10-19T10:31:48;21.90;;;13.70;;
72325;SDS011;60278;47.980;18.780;2023-10-19T10:34:51;21.45;;;13.75;;
72325;SDS011;60278;47.980;18.780;2023-10-19T10:37:54;21.60;;;14.40;;
72325;SDS011;60278;47.980;18.780;2023-10-19T10:40:56;21.95;;;14.35;;
72325;SDS011;60278;47.980;18.780;2023-10-19T10:43:58;21.70;;;13.15;;
72325;SDS011;60278;47.980;18.780;2023-10-19T10:47:01;23.27;;;14.53;;
72325;SDS011;60278;47.980;18.780;2023-10-19T10:50:03;22.50;;;14.32;;
72325;SDS011;60278;47.980;18.780;2023-10-19T10:53:05;22.52;;;14.40;;
72325;SDS011;60278;47.980;18.780;2023-10-19T10:56:07;25.23;;;13.60;;
72325;SDS011;60278;47.980;18.780;2023-10-19T10:59:12;31.23;;;13.70;;
72325;SDS011;60278;47.980;18.780;2023-10-19T11:02:17;27.10;;;14.93;;
72325;SDS011;60278;47.980;18.780;2023-10-19T11:05:20;23.85;;;15.65;;
72325;SDS011;60278;47.980;18.780;2023-10-19T11:08:25;33.65;;;15.15;;
72325;SDS011;60278;47.980;18.780;2023-10-19T11:11:28;28.38;;;14.98;;
72325;SDS011;60278;47.980;18.780;2023-10-19T11:14:30;29.90;;;15.38;;
72325;SDS011;60278;47.980;18.780;2023-10-19T11:17:33;27.53;;;14.63;;
72325;SDS011;60278;47.980;18.780;2023-10-19T11:20:35;22.30;;;13.35;;
72325;SDS011;60278;47.980;18.780;2023-10-19T11:26:45;24.15;;;14.60;;
72325;SDS011;60278;47.980;18.780;2023-10-19T11:33:16;22.47;;;14.33;;
72325;SDS011;60278;47.980;18.780;2023-10-19T11:36:20;27.02;;;13.77;;
72325;SDS011;60278;47.980;18.780;2023-10-19T11:39:24;25.38;;;14.25;;
72325;SDS011;60278;47.980;18.780;2023-10-19T11:42:26;26.23;;;15.60;;
72325;SDS011;60278;47.980;18.780;2023-10-19T11:45:28;25.05;;;15.85;;
72325;SDS011;60278;47.980;18.780;2023-10-19T11:48:32;27.70;;;15.03;;
72325;SDS011;60278;47.980;18.780;2023-10-19T11:51:34;22.35;;;14.10;;
72325;SDS011;60278;47.980;18.780;2023-10-19T11:54:36;22.85;;;15.68;;
72325;SDS011;60278;47.980;18.780;2023-10-19T11:57:41;26.10;;;15.05;;
72325;SDS011;60278;47.980;18.780;2023-10-19T12:00:45;26.58;;;15.65;;
72325;SDS011;60278;47.980;18.780;2023-10-19T12:03:48;24.33;;;14.67;;
72325;SDS011;60278;47.980;18.780;2023-10-19T12:06:51;25.92;;;16.25;;
72325;SDS011;60278;47.980;18.780;2023-10-19T12:09:53;29.67;;;17.58;;
72325;SDS011;60278;47.980;18.780;2023-10-19T12:12:55;26.90;;;16.33;;
72325;SDS011;60278;47.980;18.780;2023-10-19T12:16:03;26.23;;;15.88;;
72325;SDS011;60278;47.980;18.780;2023-10-19T12:19:07;28.33;;;15.90;;
72325;SDS011;60278;47.980;18.780;2023-10-19T12:22:09;26.75;;;15.52;;
72325;SDS011;60278;47.980;18.780;2023-10-19T12:25:11;24.40;;;15.15;;
72325;SDS011;60278;47.980;18.780;2023-10-19T12:28:13;25.02;;;16.10;;
72325;SDS011;60278;47.980;18.780;2023-10-19T12:31:15;28.13;;;16.23;;
72325;SDS011;60278;47.980;18.780;2023-10-19T12:34:21;25.90;;;15.87;;
72325;SDS011;60278;47.980;18.780;2023-10-19T12:37:24;27.73;;;16.30;;
72325;SDS011;60278;47.980;18.780;2023-10-19T12:40:26;23.83;;;16.17;;
72325;SDS011;60278;47.980;18.780;2023-10-19T12:43:29;27.23;;;16.85;;
72325;SDS011;60278;47.980;18.780;2023-10-19T12:46:32;30.38;;;18.23;;
72325;SDS011;60278;47.980;18.780;2023-10-19T12:49:37;28.10;;;18.07;;
72325;SDS011;60278;47.980;18.780;2023-10-19T12:52:39;29.38;;;18.83;;
72325;SDS011;60278;47.980;18.780;2023-10-19T12:55:42;26.45;;;17.88;;
72325;SDS011;60278;47.980;18.780;2023-10-19T12:58:46;32.17;;;18.00;;
72325;SDS011;60278;47.980;18.780;2023-10-19T13:01:50;25.17;;;17.48;;
72325;SDS011;60278;47.980;18.780;2023-10-19T13:04:56;28.60;;;17.87;;
72325;SDS011;60278;47.980;18.780;2023-10-19T13:08:01;27.95;;;17.70;;
72325;SDS011;60278;47.980;18.780;2023-10-19T13:11:04;29.90;;;18.17;;
72325;SDS011;60278;47.980;18.780;2023-10-19T13:14:18;29.48;;;18.50;;
72325;SDS011;60278;47.980;18.780;2023-10-19T13:17:20;29.95;;;18.75;;
72325;SDS011;60278;47.980;18.780;2023-10-19T13:20:22;27.13;;;16.90;;
72325;SDS011;60278;47.980;18.780;2023-10-19T13:23:25;32.00;;;16.75;;
72325;SDS011;60278;47.980;18.780;2023-10-19T13:26:27;31.95;;;18.50;;
72325;SDS011;60278;47.980;18.780;2023-10-19T13:29:30;25.42;;;16.67;;
72325;SDS011;60278;47.980;18.780;2023-10-19T13:32:39;26.98;;;17.85;;
72325;SDS011;60278;47.980;18.780;2023-10-19T13:35:42;26.50;;;16.17;;
72325;SDS011;60278;47.980;18.780;2023-10-19T13:38:44;24.55;;;15.63;;
72325;SDS011;60278;47.980;18.780;2023-10-19T13:41:46;21.80;;;14.98;;
72325;SDS011;60278;47.980;18.780;2023-10-19T13:44:49;21.48;;;15.15;;
72325;SDS011;60278;47.980;18.780;2023-10-19T13:47:51;23.60;;;15.55;;
72325;SDS011;60278;47.980;18.780;2023-10-19T13:51:00;24.53;;;15.53;;
72325;SDS011;60278;47.980;18.780;2023-10-19T13:54:02;25.10;;;15.63;;
72325;SDS011;60278;47.980;18.780;2023-10-19T13:57:04;25.00;;;15.43;;
72325;SDS011;60278;47.980;18.780;2023-10-19T14:00:07;24.42;;;16.38;;
72325;SDS011;60278;47.980;18.780;2023-10-19T14:03:10;31.65;;;17.95;;
72325;SDS011;60278;47.980;18.780;2023-10-19T14:06:13;27.90;;;17.50;;
72325;SDS011;60278;47.980;18.780;2023-10-19T14:09:16;27.23;;;17.67;;
72325;SDS011;60278;47.980;18.780;2023-10-19T14:12:19;25.10;;;16.15;;
72325;SDS011;60278;47.980;18.780;2023-10-19T14:15:21;26.25;;;16.08;;
72325;SDS011;60278;47.980;18.780;2023-10-19T14:18:24;26.50;;;16.20;;
72325;SDS011;60278;47.980;18.780;2023-10-19T14:21:26;27.60;;;16.07;;
72325;SDS011;60278;47.980;18.780;2023-10-19T14:24:30;24.75;;;16.27;;
72325;SDS011;60278;47.980;18.780;2023-10-19T14:27:33;29.23;;;16.75;;
72325;SDS011;60278;47.980;18.780;2023-10-19T14:30:35;26.65;;;15.88;;
72325;SDS011;60278;47.980;18.780;2023-10-19T14:33:37;27.45;;;17.25;;
72325;SDS011;60278;47.980;18.780;2023-10-19T14:36:39;23.97;;;15.77;;
72325;SDS011;60278;47.980;18.780;2023-10-19T14:39:41;29.40;;;17.05;;
72325;SDS011;60278;47.980;18.780;2023-10-19T14:42:43;25.23;;;16.30;;
72325;SDS011;60278;47.980;18.780;2023-10-19T14:45:45;27.88;;;16.67;;
72325;SDS011;60278;47.980;18.780;2023-10-19T14:48:47;26.17;;;16.17;;
72325;SDS011;60278;47.980;18.780;2023-10-19T14:51:50;23.70;;;15.30;;
72325;SDS011;60278;47.980;18.780;2023-10-19T14:54:52;24.73;;;15.85;;
72325;SDS011;60278;47.980;18.780;2023-10-19T14:57:54;26.10;;;16.85;;
72325;SDS011;60278;47.980;18.780;2023-10-19T15:00:57;26.30;;;17.38;;
72325;SDS011;60278;47.980;18.780;2023-10-19T15:03:59;24.42;;;16.40;;
72325;SDS011;60278;47.980;18.780;2023-10-19T15:07:02;25.80;;;16.80;;
72325;SDS011;60278;47.980;18.780;2023-10-19T15:10:04;28.90;;;16.73;;
72325;SDS011;60278;47.980;18.780;2023-10-19T15:13:08;33.30;;;18.88;;
72325;SDS011;60278;47.980;18.780;2023-10-19T15:16:10;27.88;;;16.50;;
72325;SDS011;60278;47.980;18.780;2023-10-19T15:19:14;29.98;;;17.92;;
72325;SDS011;60278;47.980;18.780;2023-10-19T15:22:20;29.60;;;16.77;;
72325;SDS011;60278;47.980;18.780;2023-10-19T15:25:22;28.10;;;17.38;;
72325;SDS011;60278;47.980;18.780;2023-10-19T15:28:27;29.70;;;17.95;;
72325;SDS011;60278;47.980;18.780;2023-10-19T15:31:29;27.00;;;16.58;;
72325;SDS011;60278;47.980;18.780;2023-10-19T15:34:31;28.23;;;17.02;;
72325;SDS011;60278;47.980;18.780;2023-10-19T15:37:35;26.97;;;16.57;;
72325;SDS011;60278;47.980;18.780;2023-10-19T15:40:38;37.70;;;22.48;;
72325;SDS011;60278;47.980;18.780;2023-10-19T15:43:42;42.03;;;25.63;;
72325;SDS011;60278;47.980;18.780;2023-10-19T15:46:44;34.50;;;19.95;;
72325;SDS011;60278;47.980;18.780;2023-10-19T15:49:48;31.70;;;19.50;;
72325;SDS011;60278;47.980;18.780;2023-10-19T15:52:50;33.33;;;19.47;;
72325;SDS011;60278;47.980;18.780;2023-10-19T15:55:54;31.83;;;19.20;;
72325;SDS011;60278;47.980;18.780;2023-10-19T15:58:56;30.83;;;18.55;;
72325;SDS011;60278;47.980;18.780;2023-10-19T16:01:58;28.35;;;17.50;;
72325;SDS011;60278;47.980;18.780;2023-10-19T16:05:01;28.58;;;17.15;;
72325;SDS011;60278;47.980;18.780;2023-10-19T16:08:04;30.37;;;17.00;;
72325;SDS011;60278;47.980;18.780;2023-10-19T16:11:06;32.20;;;19.15;;
72325;SDS011;60278;47.980;18.780;2023-10-19T16:14:09;33.58;;;19.73;;
72325;SDS011;60278;47.980;18.780;2023-10-19T16:17:11;31.05;;;17.38;;
72325;SDS011;60278;47.980;18.780;2023-10-19T16:20:15;32.17;;;17.88;;
72325;SDS011;60278;47.980;18.780;2023-10-19T16:23:18;31.67;;;18.10;;
72325;SDS011;60278;47.980;18.780;2023-10-19T16:26:20;36.08;;;20.70;;
72325;SDS011;60278;47.980;18.780;2023-10-19T16:29:22;34.92;;;19.85;;
72325;SDS011;60278;47.980;18.780;2023-10-19T16:32:24;33.10;;;19.65;;
72325;SDS011;60278;47.980;18.780;2023-10-19T16:35:27;33.00;;;18.95;;
72325;SDS011;60278;47.980;18.780;2023-10-19T16:38:31;34.83;;;19.67;;
72325;SDS011;60278;47.980;18.780;2023-10-19T16:41:36;40.45;;;22.52;;
72325;SDS011;60278;47.980;18.780;2023-10-19T16:44:38;30.65;;;18.63;;
72325;SDS011;60278;47.980;18.780;2023-10-19T16:47:41;30.48;;;18.10;;
72325;SDS011;60278;47.980;18.780;2023-10-19T16:50:43;36.05;;;19.85;;
72325;SDS011;60278;47.980;18.780;2023-10-19T16:53:45;34.00;;;19.87;;
72325;SDS011;60278;47.980;18.780;2023-10-19T16:56:48;40.70;;;22.10;;
72325;SDS011;60278;47.980;18.780;2023-10-19T16:59:50;37.28;;;21.40;;
72325;SDS011;60278;47.980;18.780;2023-10-19T17:02:53;33.67;;;18.58;;
72325;SDS011;60278;47.980;18.780;2023-10-19T17:05:55;35.33;;;18.85;;
72325;SDS011;60278;47.980;18.780;2023-10-19T17:09:13;31.37;;;18.23;;
72325;SDS011;60278;47.980;18.780;2023-10-19T17:12:19;32.08;;;18.77;;
72325;SDS011;60278;47.980;18.780;2023-10-19T17:15:21;33.40;;;19.30;;
72325;SDS011;60278;47.980;18.780;2023-10-19T17:18:23;37.83;;;20.85;;
72325;SDS011;60278;47.980;18.780;2023-10-19T17:21:26;46.03;;;26.42;;
72325;SDS011;60278;47.980;18.780;2023-10-19T17:24:28;47.60;;;26.60;;
72325;SDS011;60278;47.980;18.780;2023-10-19T17:27:31;36.33;;;21.33;;
72325;SDS011;60278;47.980;18.780;2023-10-19T17:30:33;37.70;;;21.25;;
72325;SDS011;60278;47.980;18.780;2023-10-19T17:33:38;41.10;;;21.55;;
72325;SDS011;60278;47.980;18.780;2023-10-19T17:36:40;38.25;;;21.38;;
72325;SDS011;60278;47.980;18.780;2023-10-19T17:39:44;38.07;;;20.43;;
72325;SDS011;60278;47.980;18.780;2023-10-19T17:42:46;39.45;;;21.48;;
72325;SDS011;60278;47.980;18.780;2023-10-19T17:45:48;46.45;;;23.15;;
72325;SDS011;60278;47.980;18.780;2023-10-19T17:48:50;41.42;;;20.27;;
72325;SDS011;60278;47.980;18.780;2023-10-19T17:51:52;41.60;;;22.35;;